sensor_id;sensor_type;location;lat;lon;timestamp;temperature;humidity
40077;DHT22;25777;47.824;18.982;2023-07-13T00:01:04;20.70;99.90
40077;DHT22;25777;47.824;18.982;2023-07-13T00:03:29;20.70;99.90
40077;DHT22;25777;47.824;18.982;2023-07-13T00:06:00;20.70;99.90
40077;DHT22;25777;47.824;18.982;2023-07-13T00:08:29;20.70;99.90
40077;DHT22;25777;47.824;18.982;2023-07-13T00:10:55;20.70;99.90
40077;DHT22;25777;47.824;18.982;2023-07-13T00:13:21;20.70;99.90
40077;DHT22;25777;47.824;18.982;2023-07-13T00:15:46;20.80;99.90
40077;DHT22;25777;47.824;18.982;2023-07-13T00:18:13;20.80;99.90
40077;DHT22;25777;47.824;18.982;2023-07-13T00:20:38;20.90;99.90
40077;DHT22;25777;47.824;18.982;2023-07-13T00:23:06;20.90;99.90
40077;DHT22;25777;47.824;18.982;2023-07-13T00:25:32;20.80;99.90
40077;DHT22;25777;47.824;18.982;2023-07-13T00:27:58;20.60;99.90
40077;DHT22;25777;47.824;18.982;2023-07-13T00:30:23;20.60;99.90
40077;DHT22;25777;47.824;18.982;2023-07-13T00:32:49;20.60;99.90
40077;DHT22;25777;47.824;18.982;2023-07-13T00:35:15;20.70;99.90
40077;DHT22;25777;47.824;18.982;2023-07-13T00:37:42;20.80;99.90
40077;DHT22;25777;47.824;18.982;2023-07-13T00:40:09;20.70;99.90
40077;DHT22;25777;47.824;18.982;2023-07-13T00:42:35;20.70;99.90
40077;DHT22;25777;47.824;18.982;2023-07-13T00:47:27;20.70;99.90
40077;DHT22;25777;47.824;18.982;2023-07-13T00:49:52;20.80;99.90
40077;DHT22;25777;47.824;18.982;2023-07-13T00:52:18;20.80;99.90
40077;DHT22;25777;47.824;18.982;2023-07-13T00:54:44;20.80;99.90
40077;DHT22;25777;47.824;18.982;2023-07-13T00:57:15;20.80;99.90
40077;DHT22;25777;47.824;18.982;2023-07-13T00:59:43;20.70;99.90
40077;DHT22;25777;47.824;18.982;2023-07-13T01:02:10;20.70;99.90
40077;DHT22;25777;47.824;18.982;2023-07-13T01:04:36;20.70;99.90
40077;DHT22;25777;47.824;18.982;2023-07-13T01:07:04;20.60;99.90
40077;DHT22;25777;47.824;18.982;2023-07-13T01:09:30;20.60;99.90
40077;DHT22;25777;47.824;18.982;2023-07-13T01:11:57;20.50;99.90
40077;DHT22;25777;47.824;18.982;2023-07-13T01:14:29;20.50;99.90
40077;DHT22;25777;47.824;18.982;2023-07-13T01:16:54;20.50;99.90
40077;DHT22;25777;47.824;18.982;2023-07-13T01:19:37;20.60;99.90
40077;DHT22;25777;47.824;18.982;2023-07-13T01:22:05;20.60;99.90
40077;DHT22;25777;47.824;18.982;2023-07-13T01:24:37;20.70;99.90
40077;DHT22;25777;47.824;18.982;2023-07-13T01:27:03;20.60;99.90
40077;DHT22;25777;47.824;18.982;2023-07-13T01:29:31;20.60;99.90
40077;DHT22;25777;47.824;18.982;2023-07-13T01:31:57;20.60;99.90
40077;DHT22;25777;47.824;18.982;2023-07-13T01:34:23;20.60;99.90
40077;DHT22;25777;47.824;18.982;2023-07-13T01:36:49;20.60;99.90
40077;DHT22;25777;47.824;18.982;2023-07-13T01:39:14;20.60;99.90
40077;DHT22;25777;47.824;18.982;2023-07-13T01:41:40;20.60;99.90
40077;DHT22;25777;47.824;18.982;2023-07-13T01:44:06;20.60;99.90
40077;DHT22;25777;47.824;18.982;2023-07-13T01:46:32;20.50;99.90
40077;DHT22;25777;47.824;18.982;2023-07-13T01:48:57;20.50;99.90
40077;DHT22;25777;47.824;18.982;2023-07-13T01:51:23;20.50;99.90
40077;DHT22;25777;47.824;18.982;2023-07-13T01:53:49;20.50;99.90
40077;DHT22;25777;47.824;18.982;2023-07-13T01:56:15;20.30;99.90
40077;DHT22;25777;47.824;18.982;2023-07-13T01:58:41;20.30;99.90
40077;DHT22;25777;47.824;18.982;2023-07-13T02:01:06;20.30;99.90
40077;DHT22;25777;47.824;18.982;2023-07-13T02:03:32;20.10;99.90
40077;DHT22;25777;47.824;18.982;2023-07-13T02:05:58;20.10;99.90
40077;DHT22;25777;47.824;18.982;2023-07-13T02:08:23;20.10;99.90
40077;DHT22;25777;47.824;18.982;2023-07-13T02:10:49;20.20;99.90
40077;DHT22;25777;47.824;18.982;2023-07-13T02:13:14;20.20;99.90
40077;DHT22;25777;47.824;18.982;2023-07-13T02:15:40;20.20;99.90
40077;DHT22;25777;47.824;18.982;2023-07-13T02:18:07;20.20;99.90
40077;DHT22;25777;47.824;18.982;2023-07-13T02:20:35;20.20;99.90
40077;DHT22;25777;47.824;18.982;2023-07-13T02:23:00;20.20;99.90
40077;DHT22;25777;47.824;18.982;2023-07-13T02:25:26;20.10;99.90
40077;DHT22;25777;47.824;18.982;2023-07-13T02:27:52;20.10;99.90
40077;DHT22;25777;47.824;18.982;2023-07-13T02:30:18;20.10;99.90
40077;DHT22;25777;47.824;18.982;2023-07-13T02:32:43;20.10;99.90
40077;DHT22;25777;47.824;18.982;2023-07-13T02:35:10;20.00;99.90
40077;DHT22;25777;47.824;18.982;2023-07-13T02:37:36;20.00;99.90
40077;DHT22;25777;47.824;18.982;2023-07-13T02:40:01;20.00;99.90
40077;DHT22;25777;47.824;18.982;2023-07-13T02:42:33;20.00;99.90
40077;DHT22;25777;47.824;18.982;2023-07-13T02:44:59;20.00;99.90
40077;DHT22;25777;47.824;18.982;2023-07-13T02:47:25;19.90;99.90
40077;DHT22;25777;47.824;18.982;2023-07-13T02:49:50;19.90;99.90
40077;DHT22;25777;47.824;18.982;2023-07-13T02:52:16;19.90;99.90
40077;DHT22;25777;47.824;18.982;2023-07-13T02:54:41;19.90;99.90
40077;DHT22;25777;47.824;18.982;2023-07-13T02:57:07;19.90;99.90
40077;DHT22;25777;47.824;18.982;2023-07-13T02:59:33;19.80;99.90
40077;DHT22;25777;47.824;18.982;2023-07-13T03:01:58;19.90;99.90
40077;DHT22;25777;47.824;18.982;2023-07-13T03:04:25;19.80;99.90
40077;DHT22;25777;47.824;18.982;2023-07-13T03:06:51;19.80;99.90
40077;DHT22;25777;47.824;18.982;2023-07-13T03:09:17;19.80;99.90
40077;DHT22;25777;47.824;18.982;2023-07-13T03:11:42;19.70;99.90
40077;DHT22;25777;47.824;18.982;2023-07-13T03:14:08;19.70;99.90
40077;DHT22;25777;47.824;18.982;2023-07-13T03:16:34;19.80;99.90
40077;DHT22;25777;47.824;18.982;2023-07-13T03:18:59;19.80;99.90
40077;DHT22;25777;47.824;18.982;2023-07-13T03:21:25;19.80;99.90
40077;DHT22;25777;47.824;18.982;2023-07-13T03:23:51;19.70;99.90
40077;DHT22;25777;47.824;18.982;2023-07-13T03:26:17;19.70;99.90
40077;DHT22;25777;47.824;18.982;2023-07-13T03:28:44;19.70;99.90
40077;DHT22;25777;47.824;18.982;2023-07-13T03:31:11;19.70;99.90
40077;DHT22;25777;47.824;18.982;2023-07-13T03:33:37;19.70;99.90
40077;DHT22;25777;47.824;18.982;2023-07-13T03:36:03;19.70;99.90
40077;DHT22;25777;47.824;18.982;2023-07-13T03:38:29;19.70;99.90
40077;DHT22;25777;47.824;18.982;2023-07-13T03:40:55;19.80;99.90
40077;DHT22;25777;47.824;18.982;2023-07-13T03:43:21;19.80;99.90
40077;DHT22;25777;47.824;18.982;2023-07-13T03:45:47;19.80;99.90
40077;DHT22;25777;47.824;18.982;2023-07-13T03:48:13;19.90;99.90
40077;DHT22;25777;47.824;18.982;2023-07-13T03:50:39;19.90;99.90
40077;DHT22;25777;47.824;18.982;2023-07-13T03:53:04;20.00;99.90
40077;DHT22;25777;47.824;18.982;2023-07-13T03:55:30;20.00;99.90
40077;DHT22;25777;47.824;18.982;2023-07-13T03:58:00;20.00;99.90
40077;DHT22;25777;47.824;18.982;2023-07-13T04:00:26;19.90;99.90
40077;DHT22;25777;47.824;18.982;2023-07-13T04:02:52;20.00;99.90
40077;DHT22;25777;47.824;18.982;2023-07-13T04:05:18;20.00;99.90
40077;DHT22;25777;47.824;18.982;2023-07-13T04:07:44;20.10;99.90
40077;DHT22;25777;47.824;18.982;2023-07-13T04:10:09;20.00;99.90
40077;DHT22;25777;47.824;18.982;2023-07-13T04:12:35;20.10;99.90
40077;DHT22;25777;47.824;18.982;2023-07-13T04:15:01;20.10;99.90
40077;DHT22;25777;47.824;18.982;2023-07-13T04:17:27;20.10;99.90
40077;DHT22;25777;47.824;18.982;2023-07-13T04:19:52;20.10;99.90
40077;DHT22;25777;47.824;18.982;2023-07-13T04:22:18;20.10;99.90
40077;DHT22;25777;47.824;18.982;2023-07-13T04:24:44;20.10;99.90
40077;DHT22;25777;47.824;18.982;2023-07-13T04:27:09;20.10;99.90
40077;DHT22;25777;47.824;18.982;2023-07-13T04:29:35;20.10;99.90
40077;DHT22;25777;47.824;18.982;2023-07-13T04:32:01;20.10;99.90
40077;DHT22;25777;47.824;18.982;2023-07-13T04:34:26;20.10;99.90
40077;DHT22;25777;47.824;18.982;2023-07-13T04:36:53;20.00;99.90
40077;DHT22;25777;47.824;18.982;2023-07-13T04:42:22;20.00;99.90
40077;DHT22;25777;47.824;18.982;2023-07-13T04:44:51;20.10;99.90
40077;DHT22;25777;47.824;18.982;2023-07-13T04:47:26;20.00;99.90
40077;DHT22;25777;47.824;18.982;2023-07-13T04:52:23;20.10;99.90
40077;DHT22;25777;47.824;18.982;2023-07-13T04:54:48;20.10;99.90
40077;DHT22;25777;47.824;18.982;2023-07-13T04:57:14;20.10;99.90
40077;DHT22;25777;47.824;18.982;2023-07-13T04:59:41;20.10;99.90
40077;DHT22;25777;47.824;18.982;2023-07-13T05:05:06;19.90;99.90
40077;DHT22;25777;47.824;18.982;2023-07-13T05:07:37;19.90;99.90
40077;DHT22;25777;47.824;18.982;2023-07-13T05:12:51;19.90;99.90
40077;DHT22;25777;47.824;18.982;2023-07-13T05:15:17;19.90;99.90
40077;DHT22;25777;47.824;18.982;2023-07-13T05:17:49;19.90;99.90
40077;DHT22;25777;47.824;18.982;2023-07-13T05:20:16;19.70;99.90
40077;DHT22;25777;47.824;18.982;2023-07-13T05:25:13;19.60;99.90
40077;DHT22;25777;47.824;18.982;2023-07-13T05:27:39;19.60;99.90
40077;DHT22;25777;47.824;18.982;2023-07-13T05:30:06;19.60;99.90
40077;DHT22;25777;47.824;18.982;2023-07-13T05:32:32;19.50;99.90
40077;DHT22;25777;47.824;18.982;2023-07-13T05:34:58;19.50;99.90
40077;DHT22;25777;47.824;18.982;2023-07-13T05:37:24;19.50;99.90
40077;DHT22;25777;47.824;18.982;2023-07-13T05:42:18;19.50;99.90
40077;DHT22;25777;47.824;18.982;2023-07-13T05:44:44;19.40;99.90
40077;DHT22;25777;47.824;18.982;2023-07-13T05:47:09;19.40;99.90
40077;DHT22;25777;47.824;18.982;2023-07-13T05:49:35;19.40;99.90
40077;DHT22;25777;47.824;18.982;2023-07-13T05:52:01;19.40;99.90
40077;DHT22;25777;47.824;18.982;2023-07-13T05:54:26;19.40;99.90
40077;DHT22;25777;47.824;18.982;2023-07-13T05:56:52;19.40;99.90
40077;DHT22;25777;47.824;18.982;2023-07-13T05:59:18;19.40;99.90
40077;DHT22;25777;47.824;18.982;2023-07-13T06:01:43;19.30;99.90
40077;DHT22;25777;47.824;18.982;2023-07-13T06:04:09;19.40;99.90
40077;DHT22;25777;47.824;18.982;2023-07-13T06:06:35;19.40;99.90
40077;DHT22;25777;47.824;18.982;2023-07-13T06:09:00;19.30;99.90
40077;DHT22;25777;47.824;18.982;2023-07-13T06:11:26;19.40;99.90
40077;DHT22;25777;47.824;18.982;2023-07-13T06:13:53;19.30;99.90
40077;DHT22;25777;47.824;18.982;2023-07-13T06:16:19;19.20;99.90
40077;DHT22;25777;47.824;18.982;2023-07-13T06:18:45;19.30;99.90
40077;DHT22;25777;47.824;18.982;2023-07-13T06:21:18;19.30;99.90
40077;DHT22;25777;47.824;18.982;2023-07-13T06:23:44;19.20;99.90
40077;DHT22;25777;47.824;18.982;2023-07-13T06:26:11;19.20;99.90
40077;DHT22;25777;47.824;18.982;2023-07-13T06:28:37;19.10;99.90
40077;DHT22;25777;47.824;18.982;2023-07-13T06:31:04;19.10;99.90
40077;DHT22;25777;47.824;18.982;2023-07-13T06:33:30;19.10;99.90
40077;DHT22;25777;47.824;18.982;2023-07-13T06:35:56;19.10;99.90
40077;DHT22;25777;47.824;18.982;2023-07-13T06:38:22;19.10;99.90
40077;DHT22;25777;47.824;18.982;2023-07-13T06:40:47;19.10;99.90
40077;DHT22;25777;47.824;18.982;2023-07-13T06:43:13;18.80;99.90
40077;DHT22;25777;47.824;18.982;2023-07-13T06:45:43;18.70;99.90
40077;DHT22;25777;47.824;18.982;2023-07-13T06:48:11;18.70;99.90
40077;DHT22;25777;47.824;18.982;2023-07-13T06:50:37;18.70;99.90
40077;DHT22;25777;47.824;18.982;2023-07-13T06:53:03;18.70;99.90
40077;DHT22;25777;47.824;18.982;2023-07-13T06:55:29;18.80;99.90
40077;DHT22;25777;47.824;18.982;2023-07-13T06:57:55;18.90;99.90
40077;DHT22;25777;47.824;18.982;2023-07-13T07:00:20;19.10;99.90
40077;DHT22;25777;47.824;18.982;2023-07-13T07:02:47;19.30;99.90
40077;DHT22;25777;47.824;18.982;2023-07-13T07:05:13;19.40;99.90
40077;DHT22;25777;47.824;18.982;2023-07-13T07:07:39;19.80;99.90
40077;DHT22;25777;47.824;18.982;2023-07-13T07:10:05;19.80;99.90
40077;DHT22;25777;47.824;18.982;2023-07-13T07:12:31;20.00;99.90
40077;DHT22;25777;47.824;18.982;2023-07-13T07:14:58;20.00;99.90
40077;DHT22;25777;47.824;18.982;2023-07-13T07:17:24;20.20;99.90
40077;DHT22;25777;47.824;18.982;2023-07-13T07:19:51;20.20;99.90
40077;DHT22;25777;47.824;18.982;2023-07-13T07:22:19;20.30;99.90
40077;DHT22;25777;47.824;18.982;2023-07-13T07:24:47;20.40;99.90
40077;DHT22;25777;47.824;18.982;2023-07-13T07:27:13;20.60;99.90
40077;DHT22;25777;47.824;18.982;2023-07-13T07:29:42;20.80;99.90
40077;DHT22;25777;47.824;18.982;2023-07-13T07:32:08;20.90;99.90
40077;DHT22;25777;47.824;18.982;2023-07-13T07:34:34;21.00;99.90
40077;DHT22;25777;47.824;18.982;2023-07-13T07:37:00;20.80;99.90
40077;DHT22;25777;47.824;18.982;2023-07-13T07:39:26;20.80;99.90
40077;DHT22;25777;47.824;18.982;2023-07-13T07:41:52;21.00;99.90
40077;DHT22;25777;47.824;18.982;2023-07-13T07:44:18;20.90;99.90
40077;DHT22;25777;47.824;18.982;2023-07-13T07:46:43;20.90;99.90
40077;DHT22;25777;47.824;18.982;2023-07-13T07:49:09;20.90;99.90
40077;DHT22;25777;47.824;18.982;2023-07-13T07:51:36;20.90;99.90
40077;DHT22;25777;47.824;18.982;2023-07-13T07:54:02;21.00;99.90
40077;DHT22;25777;47.824;18.982;2023-07-13T07:56:27;21.10;99.90
40077;DHT22;25777;47.824;18.982;2023-07-13T07:58:53;21.20;99.90
40077;DHT22;25777;47.824;18.982;2023-07-13T08:01:19;21.50;99.90
40077;DHT22;25777;47.824;18.982;2023-07-13T08:03:44;21.60;99.90
40077;DHT22;25777;47.824;18.982;2023-07-13T08:06:10;21.70;99.90
40077;DHT22;25777;47.824;18.982;2023-07-13T08:08:36;21.90;99.90
40077;DHT22;25777;47.824;18.982;2023-07-13T08:11:02;22.10;99.90
40077;DHT22;25777;47.824;18.982;2023-07-13T08:13:28;22.30;99.90
40077;DHT22;25777;47.824;18.982;2023-07-13T08:15:54;22.50;99.90
40077;DHT22;25777;47.824;18.982;2023-07-13T08:18:19;22.70;99.90
40077;DHT22;25777;47.824;18.982;2023-07-13T08:20:45;22.80;99.90
40077;DHT22;25777;47.824;18.982;2023-07-13T08:23:11;22.90;99.90
40077;DHT22;25777;47.824;18.982;2023-07-13T08:25:36;23.10;99.90
40077;DHT22;25777;47.824;18.982;2023-07-13T08:28:03;23.20;99.90
40077;DHT22;25777;47.824;18.982;2023-07-13T08:30:28;23.40;99.90
40077;DHT22;25777;47.824;18.982;2023-07-13T08:32:54;23.40;99.90
40077;DHT22;25777;47.824;18.982;2023-07-13T08:35:20;23.40;99.90
40077;DHT22;25777;47.824;18.982;2023-07-13T08:37:46;23.50;99.90
40077;DHT22;25777;47.824;18.982;2023-07-13T08:40:11;23.70;99.90
40077;DHT22;25777;47.824;18.982;2023-07-13T08:45:06;23.80;99.90
40077;DHT22;25777;47.824;18.982;2023-07-13T08:47:35;23.90;99.90
40077;DHT22;25777;47.824;18.982;2023-07-13T08:50:03;24.10;99.90
40077;DHT22;25777;47.824;18.982;2023-07-13T08:52:31;24.20;99.90
40077;DHT22;25777;47.824;18.982;2023-07-13T08:54:58;24.30;99.90
40077;DHT22;25777;47.824;18.982;2023-07-13T08:59:56;24.60;99.90
40077;DHT22;25777;47.824;18.982;2023-07-13T09:18:13;25.40;99.90
40077;DHT22;25777;47.824;18.982;2023-07-13T09:23:10;25.60;99.90
40077;DHT22;25777;47.824;18.982;2023-07-13T09:25:37;25.80;99.90
40077;DHT22;25777;47.824;18.982;2023-07-13T09:28:20;25.90;99.90
40077;DHT22;25777;47.824;18.982;2023-07-13T09:33:20;26.10;99.90
40077;DHT22;25777;47.824;18.982;2023-07-13T09:35:45;25.90;99.90
40077;DHT22;25777;47.824;18.982;2023-07-13T09:38:12;26.20;99.90
40077;DHT22;25777;47.824;18.982;2023-07-13T09:43:24;26.30;99.90
40077;DHT22;25777;47.824;18.982;2023-07-13T09:45:50;26.20;99.90
40077;DHT22;25777;47.824;18.982;2023-07-13T09:48:17;26.30;99.90
40077;DHT22;25777;47.824;18.982;2023-07-13T09:50:43;26.30;99.90
40077;DHT22;25777;47.824;18.982;2023-07-13T09:53:13;26.50;99.90
40077;DHT22;25777;47.824;18.982;2023-07-13T09:55:40;26.40;99.90
40077;DHT22;25777;47.824;18.982;2023-07-13T09:58:10;26.00;99.90
40077;DHT22;25777;47.824;18.982;2023-07-13T10:00:37;26.30;99.90
40077;DHT22;25777;47.824;18.982;2023-07-13T10:05:39;26.50;99.90
40077;DHT22;25777;47.824;18.982;2023-07-13T10:08:05;26.50;99.90
40077;DHT22;25777;47.824;18.982;2023-07-13T10:10:32;26.70;99.90
40077;DHT22;25777;47.824;18.982;2023-07-13T10:12:58;26.90;99.90
40077;DHT22;25777;47.824;18.982;2023-07-13T10:15:24;27.40;99.90
40077;DHT22;25777;47.824;18.982;2023-07-13T10:17:54;27.70;99.90
40077;DHT22;25777;47.824;18.982;2023-07-13T10:20:21;28.00;99.90
40077;DHT22;25777;47.824;18.982;2023-07-13T10:25:23;28.10;99.90
40077;DHT22;25777;47.824;18.982;2023-07-13T10:27:53;28.30;99.90
40077;DHT22;25777;47.824;18.982;2023-07-13T10:32:45;28.10;99.20
40077;DHT22;25777;47.824;18.982;2023-07-13T10:35:13;27.80;99.90
40077;DHT22;25777;47.824;18.982;2023-07-13T10:40:16;28.20;97.40
40077;DHT22;25777;47.824;18.982;2023-07-13T10:42:44;28.10;99.90
40077;DHT22;25777;47.824;18.982;2023-07-13T10:45:12;28.20;98.40
40077;DHT22;25777;47.824;18.982;2023-07-13T10:47:38;28.40;98.00
40077;DHT22;25777;47.824;18.982;2023-07-13T10:50:05;28.10;97.20
40077;DHT22;25777;47.824;18.982;2023-07-13T10:52:46;28.30;99.40
40077;DHT22;25777;47.824;18.982;2023-07-13T10:57:59;28.60;99.20
40077;DHT22;25777;47.824;18.982;2023-07-13T11:00:25;27.80;96.50
40077;DHT22;25777;47.824;18.982;2023-07-13T11:02:57;28.30;97.00
40077;DHT22;25777;47.824;18.982;2023-07-13T11:07:55;28.30;99.90
40077;DHT22;25777;47.824;18.982;2023-07-13T11:13:27;28.90;96.70
40077;DHT22;25777;47.824;18.982;2023-07-13T11:15:50;29.00;93.60
40077;DHT22;25777;47.824;18.982;2023-07-13T11:18:21;28.90;96.00
40077;DHT22;25777;47.824;18.982;2023-07-13T11:20:49;28.70;96.00
40077;DHT22;25777;47.824;18.982;2023-07-13T11:25:43;28.90;95.60
40077;DHT22;25777;47.824;18.982;2023-07-13T11:33:08;28.50;95.20
40077;DHT22;25777;47.824;18.982;2023-07-13T11:35:40;28.70;96.70
40077;DHT22;25777;47.824;18.982;2023-07-13T11:38:16;28.60;93.70
40077;DHT22;25777;47.824;18.982;2023-07-13T11:40:43;28.50;94.80
40077;DHT22;25777;47.824;18.982;2023-07-13T11:43:11;28.90;93.90
40077;DHT22;25777;47.824;18.982;2023-07-13T11:45:38;28.50;95.70
40077;DHT22;25777;47.824;18.982;2023-07-13T11:48:04;28.70;94.60
40077;DHT22;25777;47.824;18.982;2023-07-13T11:50:31;29.00;93.60
40077;DHT22;25777;47.824;18.982;2023-07-13T11:53:00;28.90;93.90
40077;DHT22;25777;47.824;18.982;2023-07-13T11:55:25;28.90;93.90
40077;DHT22;25777;47.824;18.982;2023-07-13T11:57:59;29.20;93.00
40077;DHT22;25777;47.824;18.982;2023-07-13T12:00:26;29.10;93.10
40077;DHT22;25777;47.824;18.982;2023-07-13T12:02:54;29.50;93.10
40077;DHT22;25777;47.824;18.982;2023-07-13T12:05:21;29.20;92.90
40077;DHT22;25777;47.824;18.982;2023-07-13T12:07:47;28.90;91.20
40077;DHT22;25777;47.824;18.982;2023-07-13T12:10:20;29.10;91.60
40077;DHT22;25777;47.824;18.982;2023-07-13T12:12:48;29.10;95.10
40077;DHT22;25777;47.824;18.982;2023-07-13T12:15:14;29.10;93.30
40077;DHT22;25777;47.824;18.982;2023-07-13T12:17:40;28.50;93.40
40077;DHT22;25777;47.824;18.982;2023-07-13T12:20:24;28.80;93.20
40077;DHT22;25777;47.824;18.982;2023-07-13T12:22:51;29.20;93.00
40077;DHT22;25777;47.824;18.982;2023-07-13T12:25:17;29.20;92.10
40077;DHT22;25777;47.824;18.982;2023-07-13T12:27:47;28.90;92.50
40077;DHT22;25777;47.824;18.982;2023-07-13T12:30:25;29.00;93.80
40077;DHT22;25777;47.824;18.982;2023-07-13T12:33:05;29.40;93.50
40077;DHT22;25777;47.824;18.982;2023-07-13T12:35:38;29.60;91.30
40077;DHT22;25777;47.824;18.982;2023-07-13T12:38:07;29.50;91.20
40077;DHT22;25777;47.824;18.982;2023-07-13T12:40:37;29.10;90.90
40077;DHT22;25777;47.824;18.982;2023-07-13T12:43:03;29.20;91.70
40077;DHT22;25777;47.824;18.982;2023-07-13T12:45:32;29.40;92.70
40077;DHT22;25777;47.824;18.982;2023-07-13T12:48:19;29.20;92.00
40077;DHT22;25777;47.824;18.982;2023-07-13T12:50:46;29.30;90.20
40077;DHT22;25777;47.824;18.982;2023-07-13T12:53:13;29.40;89.60
40077;DHT22;25777;47.824;18.982;2023-07-13T12:55:47;29.60;89.70
40077;DHT22;25777;47.824;18.982;2023-07-13T12:58:16;29.70;90.90
40077;DHT22;25777;47.824;18.982;2023-07-13T13:00:47;29.70;89.40
40077;DHT22;25777;47.824;18.982;2023-07-13T13:05:40;29.00;89.70
40077;DHT22;25777;47.824;18.982;2023-07-13T13:08:10;28.80;90.00
40077;DHT22;25777;47.824;18.982;2023-07-13T13:10:36;28.60;90.40
40077;DHT22;25777;47.824;18.982;2023-07-13T13:13:02;28.10;88.20
40077;DHT22;25777;47.824;18.982;2023-07-13T13:15:28;28.50;89.80
40077;DHT22;25777;47.824;18.982;2023-07-13T13:17:55;29.10;89.70
40077;DHT22;25777;47.824;18.982;2023-07-13T13:20:21;29.30;88.90
40077;DHT22;25777;47.824;18.982;2023-07-13T13:22:47;29.40;88.00
40077;DHT22;25777;47.824;18.982;2023-07-13T13:25:13;29.40;85.40
40077;DHT22;25777;47.824;18.982;2023-07-13T13:27:44;29.00;81.50
40077;DHT22;25777;47.824;18.982;2023-07-13T13:30:14;28.70;83.70
40077;DHT22;25777;47.824;18.982;2023-07-13T13:32:41;28.70;85.70
40077;DHT22;25777;47.824;18.982;2023-07-13T13:35:18;29.10;85.80
40077;DHT22;25777;47.824;18.982;2023-07-13T13:37:44;29.00;85.30
40077;DHT22;25777;47.824;18.982;2023-07-13T13:40:14;29.40;85.30
40077;DHT22;25777;47.824;18.982;2023-07-13T13:42:41;29.20;82.80
40077;DHT22;25777;47.824;18.982;2023-07-13T13:45:09;28.90;88.70
40077;DHT22;25777;47.824;18.982;2023-07-13T13:47:34;28.50;86.50
40077;DHT22;25777;47.824;18.982;2023-07-13T13:50:01;28.40;85.70
40077;DHT22;25777;47.824;18.982;2023-07-13T13:52:27;28.40;89.90
40077;DHT22;25777;47.824;18.982;2023-07-13T13:54:53;28.60;88.60
40077;DHT22;25777;47.824;18.982;2023-07-13T13:57:23;28.70;87.10
40077;DHT22;25777;47.824;18.982;2023-07-13T13:59:49;28.60;90.50
40077;DHT22;25777;47.824;18.982;2023-07-13T14:02:26;28.70;89.60
40077;DHT22;25777;47.824;18.982;2023-07-13T14:04:57;28.50;90.20
40077;DHT22;25777;47.824;18.982;2023-07-13T14:07:23;28.40;85.80
40077;DHT22;25777;47.824;18.982;2023-07-13T14:09:49;28.30;86.60
40077;DHT22;25777;47.824;18.982;2023-07-13T14:12:15;28.30;88.00
40077;DHT22;25777;47.824;18.982;2023-07-13T14:14:41;28.00;90.30
40077;DHT22;25777;47.824;18.982;2023-07-13T14:17:12;27.80;91.80
40077;DHT22;25777;47.824;18.982;2023-07-13T14:19:43;27.60;92.90
40077;DHT22;25777;47.824;18.982;2023-07-13T14:22:08;27.50;92.40
40077;DHT22;25777;47.824;18.982;2023-07-13T14:24:35;27.50;92.20
40077;DHT22;25777;47.824;18.982;2023-07-13T14:27:01;27.70;91.90
40077;DHT22;25777;47.824;18.982;2023-07-13T14:29:27;27.70;90.50
40077;DHT22;25777;47.824;18.982;2023-07-13T14:31:52;27.60;91.60
40077;DHT22;25777;47.824;18.982;2023-07-13T14:34:18;27.60;92.00
40077;DHT22;25777;47.824;18.982;2023-07-13T14:36:44;27.70;91.90
40077;DHT22;25777;47.824;18.982;2023-07-13T14:39:22;27.70;91.00
40077;DHT22;25777;47.824;18.982;2023-07-13T14:41:50;27.70;91.80
40077;DHT22;25777;47.824;18.982;2023-07-13T14:44:17;27.70;92.90
40077;DHT22;25777;47.824;18.982;2023-07-13T14:46:43;27.40;94.60
40077;DHT22;25777;47.824;18.982;2023-07-13T14:51:35;27.30;93.50
40077;DHT22;25777;47.824;18.982;2023-07-13T14:54:02;27.10;95.70
40077;DHT22;25777;47.824;18.982;2023-07-13T14:56:28;27.00;94.60
40077;DHT22;25777;47.824;18.982;2023-07-13T14:58:54;27.10;94.30
40077;DHT22;25777;47.824;18.982;2023-07-13T15:01:20;27.10;92.00
40077;DHT22;25777;47.824;18.982;2023-07-13T15:03:46;27.10;94.10
40077;DHT22;25777;47.824;18.982;2023-07-13T15:06:13;27.10;96.40
40077;DHT22;25777;47.824;18.982;2023-07-13T15:08:45;27.00;95.40
40077;DHT22;25777;47.824;18.982;2023-07-13T15:11:11;26.90;95.60
40077;DHT22;25777;47.824;18.982;2023-07-13T15:13:38;26.90;95.70
40077;DHT22;25777;47.824;18.982;2023-07-13T15:16:05;26.90;97.00
40077;DHT22;25777;47.824;18.982;2023-07-13T15:18:35;26.70;99.10
40077;DHT22;25777;47.824;18.982;2023-07-13T15:21:03;26.60;99.90
40077;DHT22;25777;47.824;18.982;2023-07-13T15:23:29;26.50;99.90
40077;DHT22;25777;47.824;18.982;2023-07-13T15:25:55;26.50;98.70
40077;DHT22;25777;47.824;18.982;2023-07-13T15:28:20;26.40;99.70
40077;DHT22;25777;47.824;18.982;2023-07-13T15:30:47;26.40;99.00
40077;DHT22;25777;47.824;18.982;2023-07-13T15:35:44;26.40;99.90
40077;DHT22;25777;47.824;18.982;2023-07-13T15:38:28;26.20;99.90
40077;DHT22;25777;47.824;18.982;2023-07-13T15:40:54;26.30;95.90
40077;DHT22;25777;47.824;18.982;2023-07-13T15:43:21;26.30;99.50
40077;DHT22;25777;47.824;18.982;2023-07-13T15:45:47;26.30;99.90
40077;DHT22;25777;47.824;18.982;2023-07-13T15:48:17;26.00;99.90
40077;DHT22;25777;47.824;18.982;2023-07-13T15:50:44;25.90;99.90
40077;DHT22;25777;47.824;18.982;2023-07-13T15:53:10;25.90;99.90
40077;DHT22;25777;47.824;18.982;2023-07-13T15:55:39;25.80;99.90
40077;DHT22;25777;47.824;18.982;2023-07-13T15:58:08;25.70;99.90
40077;DHT22;25777;47.824;18.982;2023-07-13T16:00:35;25.70;99.90
40077;DHT22;25777;47.824;18.982;2023-07-13T16:03:00;25.70;99.90
40077;DHT22;25777;47.824;18.982;2023-07-13T16:05:26;25.60;99.90
40077;DHT22;25777;47.824;18.982;2023-07-13T16:07:52;25.60;99.90
40077;DHT22;25777;47.824;18.982;2023-07-13T16:10:27;25.50;99.90
40077;DHT22;25777;47.824;18.982;2023-07-13T16:12:55;25.70;99.90
40077;DHT22;25777;47.824;18.982;2023-07-13T16:15:22;25.60;99.90
40077;DHT22;25777;47.824;18.982;2023-07-13T16:17:48;25.70;99.90
40077;DHT22;25777;47.824;18.982;2023-07-13T16:20:15;25.60;99.90
40077;DHT22;25777;47.824;18.982;2023-07-13T16:22:46;25.50;99.90
40077;DHT22;25777;47.824;18.982;2023-07-13T16:25:20;25.50;99.90
40077;DHT22;25777;47.824;18.982;2023-07-13T16:27:49;25.50;99.90
40077;DHT22;25777;47.824;18.982;2023-07-13T16:30:16;25.30;99.90
40077;DHT22;25777;47.824;18.982;2023-07-13T16:32:45;25.40;99.90
40077;DHT22;25777;47.824;18.982;2023-07-13T16:35:11;25.40;99.90